sensor_id;sensor_type;location;lat;lon;timestamp;P1;durP1;ratioP1;P2;durP2;ratioP2
19235;SDS011;9752;54.270;12.470;2023-07-29T00:04:56;16.17;;;13.53;;
19235;SDS011;9752;54.270;12.470;2023-07-29T00:09:59;14.77;;;13.37;;
19235;SDS011;9752;54.270;12.470;2023-07-29T00:15:00;14.27;;;12.83;;
19235;SDS011;9752;54.270;12.470;2023-07-29T00:20:02;14.50;;;13.00;;
19235;SDS011;9752;54.270;12.470;2023-07-29T00:25:07;14.17;;;12.73;;
19235;SDS011;9752;54.270;12.470;2023-07-29T00:30:09;15.40;;;12.57;;
19235;SDS011;9752;54.270;12.470;2023-07-29T00:35:12;15.17;;;13.57;;
19235;SDS011;9752;54.270;12.470;2023-07-29T00:40:16;14.47;;;12.57;;
19235;SDS011;9752;54.270;12.470;2023-07-29T00:45:22;16.10;;;13.27;;
19235;SDS011;9752;54.270;12.470;2023-07-29T00:50:27;13.23;;;11.87;;
19235;SDS011;9752;54.270;12.470;2023-07-29T00:55:35;14.03;;;12.57;;
19235;SDS011;9752;54.270;12.470;2023-07-29T01:00:37;13.77;;;12.33;;
19235;SDS011;9752;54.270;12.470;2023-07-29T01:05:40;13.63;;;12.23;;
19235;SDS011;9752;54.270;12.470;2023-07-29T01:10:55;17.93;;;12.67;;
19235;SDS011;9752;54.270;12.470;2023-07-29T01:16:00;14.50;;;12.67;;
19235;SDS011;9752;54.270;12.470;2023-07-29T01:21:07;17.57;;;13.20;;
19235;SDS011;9752;54.270;12.470;2023-07-29T01:26:12;14.90;;;11.80;;
19235;SDS011;9752;54.270;12.470;2023-07-29T01:31:16;16.93;;;12.90;;
19235;SDS011;9752;54.270;12.470;2023-07-29T01:36:25;17.33;;;13.13;;
19235;SDS011;9752;54.270;12.470;2023-07-29T01:41:31;14.97;;;12.27;;
19235;SDS011;9752;54.270;12.470;2023-07-29T01:46:33;13.23;;;11.83;;
19235;SDS011;9752;54.270;12.470;2023-07-29T01:51:35;12.33;;;11.07;;
19235;SDS011;9752;54.270;12.470;2023-07-29T01:56:38;17.60;;;12.90;;
19235;SDS011;9752;54.270;12.470;2023-07-29T02:01:40;13.53;;;11.90;;
19235;SDS011;9752;54.270;12.470;2023-07-29T02:06:42;17.13;;;13.13;;
19235;SDS011;9752;54.270;12.470;2023-07-29T02:11:46;14.20;;;12.87;;
19235;SDS011;9752;54.270;12.470;2023-07-29T02:16:47;15.70;;;12.90;;
19235;SDS011;9752;54.270;12.470;2023-07-29T02:21:49;14.03;;;12.63;;
19235;SDS011;9752;54.270;12.470;2023-07-29T02:26:52;16.53;;;12.37;;
19235;SDS011;9752;54.270;12.470;2023-07-29T02:31:54;16.67;;;13.40;;
19235;SDS011;9752;54.270;12.470;2023-07-29T02:36:55;15.57;;;13.20;;
19235;SDS011;9752;54.270;12.470;2023-07-29T02:41:58;14.67;;;13.03;;
19235;SDS011;9752;54.270;12.470;2023-07-29T02:47:00;13.73;;;11.43;;
19235;SDS011;9752;54.270;12.470;2023-07-29T02:52:02;18.07;;;13.53;;
19235;SDS011;9752;54.270;12.470;2023-07-29T02:57:05;16.03;;;13.63;;
19235;SDS011;9752;54.270;12.470;2023-07-29T03:02:08;16.83;;;13.03;;
19235;SDS011;9752;54.270;12.470;2023-07-29T03:07:10;16.10;;;12.90;;
19235;SDS011;9752;54.270;12.470;2023-07-29T03:12:14;15.87;;;13.33;;
19235;SDS011;9752;54.270;12.470;2023-07-29T03:17:16;17.73;;;13.50;;
19235;SDS011;9752;54.270;12.470;2023-07-29T03:22:18;21.10;;;14.93;;
19235;SDS011;9752;54.270;12.470;2023-07-29T03:27:21;19.20;;;15.70;;
19235;SDS011;9752;54.270;12.470;2023-07-29T03:32:22;20.70;;;16.37;;
19235;SDS011;9752;54.270;12.470;2023-07-29T03:37:24;18.30;;;16.10;;
19235;SDS011;9752;54.270;12.470;2023-07-29T03:42:27;18.23;;;15.40;;
19235;SDS011;9752;54.270;12.470;2023-07-29T03:47:29;19.10;;;16.07;;
19235;SDS011;9752;54.270;12.470;2023-07-29T03:52:32;19.10;;;14.97;;
19235;SDS011;9752;54.270;12.470;2023-07-29T03:57:35;16.53;;;14.83;;
19235;SDS011;9752;54.270;12.470;2023-07-29T04:02:36;24.07;;;15.60;;
19235;SDS011;9752;54.270;12.470;2023-07-29T04:07:39;19.30;;;14.83;;
19235;SDS011;9752;54.270;12.470;2023-07-29T04:12:43;15.03;;;13.17;;
19235;SDS011;9752;54.270;12.470;2023-07-29T04:17:44;16.20;;;14.43;;
19235;SDS011;9752;54.270;12.470;2023-07-29T04:22:46;18.90;;;14.80;;
19235;SDS011;9752;54.270;12.470;2023-07-29T04:27:49;20.13;;;15.03;;
19235;SDS011;9752;54.270;12.470;2023-07-29T04:32:51;17.53;;;13.90;;
19235;SDS011;9752;54.270;12.470;2023-07-29T04:37:52;14.13;;;12.43;;
19235;SDS011;9752;54.270;12.470;2023-07-29T04:42:55;21.00;;;14.50;;
19235;SDS011;9752;54.270;12.470;2023-07-29T04:47:58;15.90;;;12.60;;
19235;SDS011;9752;54.270;12.470;2023-07-29T04:53:00;14.63;;;12.50;;
19235;SDS011;9752;54.270;12.470;2023-07-29T04:58:03;10.60;;;9.70;;
19235;SDS011;9752;54.270;12.470;2023-07-29T05:03:04;10.03;;;9.03;;
19235;SDS011;9752;54.270;12.470;2023-07-29T05:08:06;11.07;;;10.07;;
19235;SDS011;9752;54.270;12.470;2023-07-29T05:13:09;10.77;;;9.77;;
19235;SDS011;9752;54.270;12.470;2023-07-29T05:18:12;10.70;;;9.67;;
19235;SDS011;9752;54.270;12.470;2023-07-29T05:23:14;10.20;;;9.20;;
19235;SDS011;9752;54.270;12.470;2023-07-29T05:28:17;10.80;;;9.90;;
19235;SDS011;9752;54.270;12.470;2023-07-29T05:33:19;9.87;;;9.07;;
19235;SDS011;9752;54.270;12.470;2023-07-29T05:38:21;11.07;;;9.97;;
19235;SDS011;9752;54.270;12.470;2023-07-29T05:43:24;9.57;;;8.77;;
19235;SDS011;9752;54.270;12.470;2023-07-29T05:48:27;10.03;;;9.10;;
19235;SDS011;9752;54.270;12.470;2023-07-29T05:53:28;9.93;;;9.03;;
19235;SDS011;9752;54.270;12.470;2023-07-29T05:58:31;8.10;;;7.40;;
19235;SDS011;9752;54.270;12.470;2023-07-29T06:03:33;9.23;;;8.43;;
19235;SDS011;9752;54.270;12.470;2023-07-29T06:08:35;9.83;;;8.83;;
19235;SDS011;9752;54.270;12.470;2023-07-29T06:13:38;9.37;;;8.47;;
19235;SDS011;9752;54.270;12.470;2023-07-29T06:18:39;9.43;;;8.50;;
19235;SDS011;9752;54.270;12.470;2023-07-29T06:23:41;9.03;;;8.23;;
19235;SDS011;9752;54.270;12.470;2023-07-29T06:28:44;9.30;;;8.60;;
19235;SDS011;9752;54.270;12.470;2023-07-29T06:33:46;10.50;;;9.70;;
19235;SDS011;9752;54.270;12.470;2023-07-29T06:38:48;8.60;;;7.87;;
19235;SDS011;9752;54.270;12.470;2023-07-29T06:43:51;10.17;;;9.07;;
19235;SDS011;9752;54.270;12.470;2023-07-29T06:48:53;8.83;;;8.13;;
19235;SDS011;9752;54.270;12.470;2023-07-29T06:53:54;9.30;;;8.47;;
19235;SDS011;9752;54.270;12.470;2023-07-29T06:58:57;9.53;;;8.83;;
19235;SDS011;9752;54.270;12.470;2023-07-29T07:03:59;10.00;;;9.20;;
19235;SDS011;9752;54.270;12.470;2023-07-29T07:09:00;9.43;;;8.50;;
19235;SDS011;9752;54.270;12.470;2023-07-29T07:14:04;8.83;;;8.07;;
19235;SDS011;9752;54.270;12.470;2023-07-29T07:19:05;10.37;;;9.07;;
19235;SDS011;9752;54.270;12.470;2023-07-29T07:24:07;8.13;;;7.53;;
19235;SDS011;9752;54.270;12.470;2023-07-29T07:29:10;8.07;;;7.47;;
19235;SDS011;9752;54.270;12.470;2023-07-29T07:34:12;9.00;;;8.20;;
19235;SDS011;9752;54.270;12.470;2023-07-29T07:39:13;8.60;;;7.93;;
19235;SDS011;9752;54.270;12.470;2023-07-29T07:44:17;8.77;;;8.13;;
19235;SDS011;9752;54.270;12.470;2023-07-29T07:49:19;8.73;;;8.13;;
19235;SDS011;9752;54.270;12.470;2023-07-29T07:54:21;8.60;;;8.07;;
19235;SDS011;9752;54.270;12.470;2023-07-29T07:59:24;8.73;;;8.03;;
19235;SDS011;9752;54.270;12.470;2023-07-29T08:04:25;8.47;;;7.70;;
19235;SDS011;9752;54.270;12.470;2023-07-29T08:09:27;9.47;;;8.77;;
19235;SDS011;9752;54.270;12.470;2023-07-29T08:14:30;10.37;;;9.70;;
19235;SDS011;9752;54.270;12.470;2023-07-29T08:19:33;10.90;;;10.17;;
19235;SDS011;9752;54.270;12.470;2023-07-29T08:24:35;11.00;;;10.40;;
19235;SDS011;9752;54.270;12.470;2023-07-29T08:29:38;13.23;;;11.93;;
19235;SDS011;9752;54.270;12.470;2023-07-29T08:34:40;14.00;;;13.10;;
19235;SDS011;9752;54.270;12.470;2023-07-29T08:39:42;12.73;;;11.93;;
19235;SDS011;9752;54.270;12.470;2023-07-29T08:44:45;16.03;;;14.93;;
19235;SDS011;9752;54.270;12.470;2023-07-29T08:49:50;15.50;;;14.30;;
19235;SDS011;9752;54.270;12.470;2023-07-29T08:54:53;14.20;;;13.30;;
19235;SDS011;9752;54.270;12.470;2023-07-29T08:59:56;15.50;;;14.20;;
19235;SDS011;9752;54.270;12.470;2023-07-29T09:04:59;15.07;;;14.07;;
19235;SDS011;9752;54.270;12.470;2023-07-29T09:10:02;14.70;;;13.60;;
19235;SDS011;9752;54.270;12.470;2023-07-29T09:15:06;14.33;;;13.43;;
19235;SDS011;9752;54.270;12.470;2023-07-29T09:20:09;15.17;;;14.17;;
19235;SDS011;9752;54.270;12.470;2023-07-29T09:25:12;14.70;;;13.67;;
19235;SDS011;9752;54.270;12.470;2023-07-29T09:30:17;14.83;;;13.93;;
19235;SDS011;9752;54.270;12.470;2023-07-29T09:35:19;15.07;;;14.17;;
19235;SDS011;9752;54.270;12.470;2023-07-29T09:40:21;14.77;;;13.87;;
19235;SDS011;9752;54.270;12.470;2023-07-29T09:45:24;14.13;;;13.20;;
19235;SDS011;9752;54.270;12.470;2023-07-29T09:50:27;17.03;;;16.03;;
19235;SDS011;9752;54.270;12.470;2023-07-29T09:55:28;16.50;;;15.40;;
19235;SDS011;9752;54.270;12.470;2023-07-29T10:00:32;17.80;;;16.70;;
19235;SDS011;9752;54.270;12.470;2023-07-29T10:05:34;16.90;;;15.90;;
19235;SDS011;9752;54.270;12.470;2023-07-29T10:10:36;18.83;;;17.73;;
19235;SDS011;9752;54.270;12.470;2023-07-29T10:15:39;18.63;;;17.47;;
19235;SDS011;9752;54.270;12.470;2023-07-29T10:20:42;17.17;;;16.17;;
19235;SDS011;9752;54.270;12.470;2023-07-29T10:25:46;18.43;;;17.33;;
19235;SDS011;9752;54.270;12.470;2023-07-29T10:30:53;19.50;;;18.17;;
19235;SDS011;9752;54.270;12.470;2023-07-29T10:35:55;17.13;;;16.03;;
19235;SDS011;9752;54.270;12.470;2023-07-29T10:40:57;17.40;;;16.37;;
19235;SDS011;9752;54.270;12.470;2023-07-29T10:46:15;19.97;;;18.67;;
19235;SDS011;9752;54.270;12.470;2023-07-29T10:51:22;18.30;;;17.37;;
19235;SDS011;9752;54.270;12.470;2023-07-29T10:56:25;18.83;;;17.53;;
19235;SDS011;9752;54.270;12.470;2023-07-29T11:01:30;20.00;;;18.60;;
19235;SDS011;9752;54.270;12.470;2023-07-29T11:06:34;19.53;;;18.33;;
19235;SDS011;9752;54.270;12.470;2023-07-29T11:17:47;21.30;;;19.60;;
19235;SDS011;9752;54.270;12.470;2023-07-29T11:22:50;25.10;;;22.77;;
19235;SDS011;9752;54.270;12.470;2023-07-29T11:27:53;23.07;;;21.33;;
19235;SDS011;9752;54.270;12.470;2023-07-29T11:32:57;22.30;;;20.43;;
19235;SDS011;9752;54.270;12.470;2023-07-29T11:37:59;20.60;;;19.00;;
19235;SDS011;9752;54.270;12.470;2023-07-29T11:43:01;21.30;;;19.53;;
19235;SDS011;9752;54.270;12.470;2023-07-29T11:48:06;24.67;;;22.47;;
19235;SDS011;9752;54.270;12.470;2023-07-29T11:53:08;21.77;;;19.97;;
19235;SDS011;9752;54.270;12.470;2023-07-29T11:58:09;20.47;;;18.77;;
19235;SDS011;9752;54.270;12.470;2023-07-29T12:03:12;18.83;;;17.43;;
19235;SDS011;9752;54.270;12.470;2023-07-29T12:08:16;17.73;;;16.13;;
19235;SDS011;9752;54.270;12.470;2023-07-29T12:13:18;16.73;;;15.33;;
19235;SDS011;9752;54.270;12.470;2023-07-29T12:18:21;18.37;;;16.87;;
19235;SDS011;9752;54.270;12.470;2023-07-29T12:23:31;15.13;;;14.00;;
19235;SDS011;9752;54.270;12.470;2023-07-29T12:28:32;15.33;;;14.43;;
19235;SDS011;9752;54.270;12.470;2023-07-29T12:33:36;13.27;;;12.33;;
19235;SDS011;9752;54.270;12.470;2023-07-29T12:38:39;14.03;;;12.93;;
19235;SDS011;9752;54.270;12.470;2023-07-29T12:43:43;16.37;;;14.73;;
19235;SDS011;9752;54.270;12.470;2023-07-29T12:48:47;19.83;;;16.07;;
19235;SDS011;9752;54.270;12.470;2023-07-29T12:53:49;14.00;;;12.80;;
19235;SDS011;9752;54.270;12.470;2023-07-29T12:58:50;12.20;;;11.20;;
19235;SDS011;9752;54.270;12.470;2023-07-29T13:03:53;11.37;;;10.57;;
19235;SDS011;9752;54.270;12.470;2023-07-29T13:08:56;11.33;;;10.43;;
19235;SDS011;9752;54.270;12.470;2023-07-29T13:13:58;11.13;;;10.17;;
19235;SDS011;9752;54.270;12.470;2023-07-29T13:19:02;9.77;;;8.97;;
19235;SDS011;9752;54.270;12.470;2023-07-29T13:24:03;10.07;;;9.20;;
19235;SDS011;9752;54.270;12.470;2023-07-29T13:29:05;9.87;;;9.17;;
19235;SDS011;9752;54.270;12.470;2023-07-29T13:34:08;10.57;;;9.77;;
19235;SDS011;9752;54.270;12.470;2023-07-29T13:39:10;11.87;;;10.80;;
19235;SDS011;9752;54.270;12.470;2023-07-29T13:44:12;10.50;;;9.57;;
19235;SDS011;9752;54.270;12.470;2023-07-29T13:49:15;10.73;;;9.83;;
19235;SDS011;9752;54.270;12.470;2023-07-29T13:54:17;9.47;;;8.87;;
19235;SDS011;9752;54.270;12.470;2023-07-29T13:59:18;9.77;;;9.07;;
19235;SDS011;9752;54.270;12.470;2023-07-29T14:04:21;13.77;;;12.40;;
19235;SDS011;9752;54.270;12.470;2023-07-29T14:09:23;14.17;;;13.20;;
19235;SDS011;9752;54.270;12.470;2023-07-29T14:14:25;13.67;;;12.40;;
19235;SDS011;9752;54.270;12.470;2023-07-29T14:19:28;12.10;;;11.30;;
19235;SDS011;9752;54.270;12.470;2023-07-29T14:24:30;11.67;;;10.87;;
19235;SDS011;9752;54.270;12.470;2023-07-29T14:29:32;10.73;;;10.00;;
19235;SDS011;9752;54.270;12.470;2023-07-29T14:34:35;10.53;;;9.77;;
19235;SDS011;9752;54.270;12.470;2023-07-29T14:39:36;10.10;;;9.60;;
19235;SDS011;9752;54.270;12.470;2023-07-29T14:44:38;10.20;;;9.50;;
19235;SDS011;9752;54.270;12.470;2023-07-29T14:49:41;13.30;;;12.20;;
19235;SDS011;9752;54.270;12.470;2023-07-29T14:54:43;12.30;;;11.20;;
19235;SDS011;9752;54.270;12.470;2023-07-29T14:59:44;10.57;;;9.83;;
19235;SDS011;9752;54.270;12.470;2023-07-29T15:04:47;9.77;;;9.13;;
19235;SDS011;9752;54.270;12.470;2023-07-29T15:09:49;14.70;;;13.90;;
19235;SDS011;9752;54.270;12.470;2023-07-29T15:14:51;15.90;;;14.85;;
19235;SDS011;9752;54.270;12.470;2023-07-29T15:19:54;15.53;;;14.60;;
19235;SDS011;9752;54.270;12.470;2023-07-29T15:24:56;14.98;;;13.95;;
19235;SDS011;9752;54.270;12.470;2023-07-29T15:29:57;16.02;;;15.20;;
19235;SDS011;9752;54.270;12.470;2023-07-29T15:35:00;17.70;;;16.60;;
19235;SDS011;9752;54.270;12.470;2023-07-29T15:40:02;18.38;;;17.27;;
19235;SDS011;9752;54.270;12.470;2023-07-29T15:45:05;15.33;;;14.23;;
19235;SDS011;9752;54.270;12.470;2023-07-29T15:50:09;13.33;;;12.33;;
19235;SDS011;9752;54.270;12.470;2023-07-29T15:55:11;12.67;;;11.60;;
19235;SDS011;9752;54.270;12.470;2023-07-29T16:00:13;10.60;;;10.00;;
19235;SDS011;9752;54.270;12.470;2023-07-29T16:05:17;12.93;;;12.07;;
19235;SDS011;9752;54.270;12.470;2023-07-29T16:10:18;16.08;;;14.90;;
19235;SDS011;9752;54.270;12.470;2023-07-29T16:15:20;17.35;;;16.25;;
19235;SDS011;9752;54.270;12.470;2023-07-29T16:20:24;17.65;;;16.63;;
19235;SDS011;9752;54.270;12.470;2023-07-29T16:25:25;18.50;;;17.50;;
19235;SDS011;9752;54.270;12.470;2023-07-29T16:30:27;18.13;;;17.00;;
19235;SDS011;9752;54.270;12.470;2023-07-29T16:35:30;16.45;;;15.65;;
19235;SDS011;9752;54.270;12.470;2023-07-29T16:40:32;17.10;;;16.10;;
19235;SDS011;9752;54.270;12.470;2023-07-29T16:45:33;17.08;;;16.17;;
19235;SDS011;9752;54.270;12.470;2023-07-29T16:50:36;16.40;;;15.47;;
19235;SDS011;9752;54.270;12.470;2023-07-29T16:55:38;16.63;;;15.73;;
19235;SDS011;9752;54.270;12.470;2023-07-29T17:00:40;17.00;;;16.20;;
19235;SDS011;9752;54.270;12.470;2023-07-29T17:05:43;17.50;;;16.63;;
19235;SDS011;9752;54.270;12.470;2023-07-29T17:10:44;17.50;;;16.58;;
19235;SDS011;9752;54.270;12.470;2023-07-29T17:15:46;16.90;;;16.00;;
19235;SDS011;9752;54.270;12.470;2023-07-29T17:20:50;16.00;;;15.17;;
19235;SDS011;9752;54.270;12.470;2023-07-29T17:25:51;15.07;;;14.20;;
19235;SDS011;9752;54.270;12.470;2023-07-29T17:30:54;14.47;;;13.67;;
19235;SDS011;9752;54.270;12.470;2023-07-29T17:35:57;14.00;;;13.27;;
19235;SDS011;9752;54.270;12.470;2023-07-29T17:40:59;12.93;;;12.20;;
19235;SDS011;9752;54.270;12.470;2023-07-29T17:46:02;15.83;;;15.10;;
19235;SDS011;9752;54.270;12.470;2023-07-29T17:51:05;17.40;;;16.40;;
19235;SDS011;9752;54.270;12.470;2023-07-29T17:56:07;17.40;;;16.60;;
19235;SDS011;9752;54.270;12.470;2023-07-29T18:01:09;17.75;;;16.95;;
19235;SDS011;9752;54.270;12.470;2023-07-29T18:06:12;17.58;;;16.67;;
19235;SDS011;9752;54.270;12.470;2023-07-29T18:11:15;18.37;;;17.33;;
19235;SDS011;9752;54.270;12.470;2023-07-29T18:16:17;18.27;;;17.37;;
19235;SDS011;9752;54.270;12.470;2023-07-29T18:21:21;17.85;;;16.85;;
19235;SDS011;9752;54.270;12.470;2023-07-29T18:26:23;17.67;;;16.67;;
19235;SDS011;9752;54.270;12.470;2023-07-29T18:31:25;16.77;;;15.77;;
19235;SDS011;9752;54.270;12.470;2023-07-29T18:36:28;16.80;;;15.70;;
19235;SDS011;9752;54.270;12.470;2023-07-29T18:41:30;14.63;;;13.83;;
19235;SDS011;9752;54.270;12.470;2023-07-29T18:46:32;14.00;;;12.80;;
19235;SDS011;9752;54.270;12.470;2023-07-29T18:51:35;12.67;;;11.87;;
19235;SDS011;9752;54.270;12.470;2023-07-29T18:56:37;11.27;;;10.57;;
19235;SDS011;9752;54.270;12.470;2023-07-29T19:01:38;8.93;;;8.30;;
19235;SDS011;9752;54.270;12.470;2023-07-29T19:06:41;9.03;;;8.33;;
19235;SDS011;9752;54.270;12.470;2023-07-29T19:11:43;10.43;;;9.40;;
19235;SDS011;9752;54.270;12.470;2023-07-29T19:16:45;9.00;;;8.20;;
19235;SDS011;9752;54.270;12.470;2023-07-29T19:21:48;10.57;;;9.50;;
19235;SDS011;9752;54.270;12.470;2023-07-29T19:26:50;11.13;;;9.07;;
19235;SDS011;9752;54.270;12.470;2023-07-29T19:31:52;9.63;;;8.70;;
19235;SDS011;9752;54.270;12.470;2023-07-29T19:36:55;12.53;;;8.80;;
19235;SDS011;9752;54.270;12.470;2023-07-29T19:41:56;10.53;;;9.40;;
19235;SDS011;9752;54.270;12.470;2023-07-29T19:46:58;9.80;;;8.90;;
19235;SDS011;9752;54.270;12.470;2023-07-29T19:52:01;11.27;;;10.17;;
19235;SDS011;9752;54.270;12.470;2023-07-29T19:57:03;11.07;;;10.00;;
19235;SDS011;9752;54.270;12.470;2023-07-29T20:02:07;14.77;;;11.43;;
19235;SDS011;9752;54.270;12.470;2023-07-29T20:07:10;12.97;;;11.60;;
19235;SDS011;9752;54.270;12.470;2023-07-29T20:12:11;13.47;;;11.53;;
19235;SDS011;9752;54.270;12.470;2023-07-29T20:17:13;15.27;;;13.77;;
19235;SDS011;9752;54.270;12.470;2023-07-29T20:22:16;16.97;;;15.07;;
19235;SDS011;9752;54.270;12.470;2023-07-29T20:27:18;17.47;;;15.70;;
19235;SDS011;9752;54.270;12.470;2023-07-29T20:32:19;20.63;;;15.87;;
19235;SDS011;9752;54.270;12.470;2023-07-29T20:37:22;15.07;;;13.57;;
19235;SDS011;9752;54.270;12.470;2023-07-29T20:42:25;20.97;;;16.73;;
19235;SDS011;9752;54.270;12.470;2023-07-29T20:47:26;20.27;;;18.13;;
19235;SDS011;9752;54.270;12.470;2023-07-29T20:52:29;21.50;;;17.67;;
19235;SDS011;9752;54.270;12.470;2023-07-29T20:57:31;24.17;;;20.60;;
19235;SDS011;9752;54.270;12.470;2023-07-29T21:02:33;23.67;;;21.10;;
19235;SDS011;9752;54.270;12.470;2023-07-29T21:07:36;23.70;;;20.73;;
19235;SDS011;9752;54.270;12.470;2023-07-29T21:12:39;32.13;;;22.97;;
19235;SDS011;9752;54.270;12.470;2023-07-29T21:17:41;28.73;;;22.83;;
19235;SDS011;9752;54.270;12.470;2023-07-29T21:22:45;20.70;;;18.50;;
19235;SDS011;9752;54.270;12.470;2023-07-29T21:27:47;18.50;;;16.23;;
19235;SDS011;9752;54.270;12.470;2023-07-29T21:32:48;24.43;;;19.17;;
19235;SDS011;9752;54.270;12.470;2023-07-29T21:37:52;26.37;;;21.73;;
19235;SDS011;9752;54.270;12.470;2023-07-29T21:42:53;23.67;;;20.77;;
19235;SDS011;9752;54.270;12.470;2023-07-29T21:47:55;22.83;;;19.93;;
19235;SDS011;9752;54.270;12.470;2023-07-29T21:52:58;22.47;;;18.90;;
19235;SDS011;9752;54.270;12.470;2023-07-29T21:58:00;21.47;;;18.37;;
19235;SDS011;9752;54.270;12.470;2023-07-29T22:03:02;17.33;;;15.40;;
19235;SDS011;9752;54.270;12.470;2023-07-29T22:08:05;20.80;;;18.47;;
19235;SDS011;9752;54.270;12.470;2023-07-29T22:13:07;16.43;;;13.07;;
19235;SDS011;9752;54.270;12.470;2023-07-29T22:18:08;13.67;;;12.27;;
19235;SDS011;9752;54.270;12.470;2023-07-29T22:23:11;14.13;;;12.47;;
19235;SDS011;9752;54.270;12.470;2023-07-29T22:28:13;12.97;;;11.67;;
19235;SDS011;9752;54.270;12.470;2023-07-29T22:33:15;14.13;;;12.50;;
19235;SDS011;9752;54.270;12.470;2023-07-29T22:38:18;12.00;;;10.90;;
19235;SDS011;9752;54.270;12.470;2023-07-29T22:43:19;13.73;;;9.70;;
19235;SDS011;9752;54.270;12.470;2023-07-29T22:48:21;11.40;;;9.93;;
19235;SDS011;9752;54.270;12.470;2023-07-29T22:53:25;12.13;;;10.80;;
19235;SDS011;9752;54.270;12.470;2023-07-29T22:58:27;12.03;;;10.93;;
19235;SDS011;9752;54.270;12.470;2023-07-29T23:03:29;12.87;;;11.60;;
19235;SDS011;9752;54.270;12.470;2023-07-29T23:08:32;12.93;;;10.97;;
19235;SDS011;9752;54.270;12.470;2023-07-29T23:13:33;16.10;;;10.87;;
19235;SDS011;9752;54.270;12.470;2023-07-29T23:18:35;13.53;;;11.87;;
19235;SDS011;9752;54.270;12.470;2023-07-29T23:23:38;14.37;;;11.83;;
19235;SDS011;9752;54.270;12.470;2023-07-29T23:28:41;11.53;;;10.40;;
19235;SDS011;9752;54.270;12.470;2023-07-29T23:33:43;15.70;;;10.90;;
19235;SDS011;9752;54.270;12.470;2023-07-29T23:38:46;14.37;;;11.50;;
19235;SDS011;9752;54.270;12.470;2023-07-29T23:43:47;15.30;;;11.50;;
19235;SDS011;9752;54.270;12.470;2023-07-29T23:48:49;13.13;;;10.30;;
19235;SDS011;9752;54.270;12.470;2023-07-29T23:53:52;16.40;;;12.33;;
19235;SDS011;9752;54.270;12.470;2023-07-29T23:58:54;15.73;;;12.20;;
